METAR Data
IDs: Format: Raw Decoded Include TAF

Data at: 0103 UTC 01 Mar 2021

METAR for:EKRN (Ronne/Bornholm Arpt, HO, DN)
Text:EKRN 010050Z AUTO 30005KT 4400 BR BKN003/// 03/03 Q1033
Temperature: 3.0°C ( 37°F)
Dewpoint: 3.0°C ( 37°F) [RH = 100%]
Pressure (altimeter):30.50 inches Hg (1033.0 mb)
Winds:from the WNW (300 degrees) at 6 MPH (5 knots; 2.6 m/s)
Visibility: 2.73 sm ( 4.39 km)
Ceiling:300 feet AGL
Clouds: broken clouds at 300 feet AGL
Weather:BR (mist)
Text:EKRN 010020Z AUTO 30006KT 5000 NCD 03/03 Q1033
Temperature: 3.0°C ( 37°F)
Dewpoint: 3.0°C ( 37°F) [RH = 100%]
Pressure (altimeter):30.50 inches Hg (1033.0 mb)
Winds:from the WNW (300 degrees) at 7 MPH (6 knots; 3.1 m/s)
Visibility: 3 sm ( 5 km)
Ceiling:at least 12,000 feet AGL
Clouds:sky clear below 12,000 feet AGL
Text:EKRN 282350Z AUTO 29007KT 5000 NCD 03/03 Q1033
Temperature: 3.0°C ( 37°F)
Dewpoint: 3.0°C ( 37°F) [RH = 100%]
Pressure (altimeter):30.50 inches Hg (1033.0 mb)
Winds:from the WNW (290 degrees) at 8 MPH (7 knots; 3.6 m/s)
Visibility: 3 sm ( 5 km)
Ceiling:at least 12,000 feet AGL
Clouds:sky clear below 12,000 feet AGL
Text:EKRN 282320Z AUTO 30005KT 7000 NCD 03/03 Q1033
Temperature: 3.0°C ( 37°F)
Dewpoint: 3.0°C ( 37°F) [RH = 100%]
Pressure (altimeter):30.50 inches Hg (1033.0 mb)
Winds:from the WNW (300 degrees) at 6 MPH (5 knots; 2.6 m/s)
Visibility: 4 sm ( 7 km)
Ceiling:at least 12,000 feet AGL
Clouds:sky clear below 12,000 feet AGL
Text:EKRN 282250Z AUTO 30006KT 9000 NCD 03/03 Q1033
Temperature: 3.0°C ( 37°F)
Dewpoint: 3.0°C ( 37°F) [RH = 100%]
Pressure (altimeter):30.50 inches Hg (1033.0 mb)
Winds:from the WNW (300 degrees) at 7 MPH (6 knots; 3.1 m/s)
Visibility: 6 sm ( 9 km)
Ceiling:at least 12,000 feet AGL
Clouds:sky clear below 12,000 feet AGL
Text:EKRN 282220Z AUTO 30006KT 9999 NCD 03/03 Q1033
Temperature: 3.0°C ( 37°F)
Dewpoint: 3.0°C ( 37°F) [RH = 100%]
Pressure (altimeter):30.50 inches Hg (1033.0 mb)
Winds:from the WNW (300 degrees) at 7 MPH (6 knots; 3.1 m/s)
Visibility:6 or more sm (10+ km)
Ceiling:at least 12,000 feet AGL
Clouds:sky clear below 12,000 feet AGL
Text:EKRN 282150Z AUTO 30007KT 9999 NCD 03/03 Q1033
Temperature: 3.0°C ( 37°F)
Dewpoint: 3.0°C ( 37°F) [RH = 100%]
Pressure (altimeter):30.50 inches Hg (1033.0 mb)
Winds:from the WNW (300 degrees) at 8 MPH (7 knots; 3.6 m/s)
Visibility:6 or more sm (10+ km)
Ceiling:at least 12,000 feet AGL
Clouds:sky clear below 12,000 feet AGL
Text:EKRN 282120Z AUTO 30008KT 9999 NCD 04/04 Q1033
Temperature: 4.0°C ( 39°F)
Dewpoint: 4.0°C ( 39°F) [RH = 100%]
Pressure (altimeter):30.50 inches Hg (1033.0 mb)
Winds:from the WNW (300 degrees) at 9 MPH (8 knots; 4.1 m/s)
Visibility:6 or more sm (10+ km)
Ceiling:at least 12,000 feet AGL
Clouds:sky clear below 12,000 feet AGL
Text:EKRN 282050Z AUTO 30008KT 9999 NCD 04/04 Q1033
Temperature: 4.0°C ( 39°F)
Dewpoint: 4.0°C ( 39°F) [RH = 100%]
Pressure (altimeter):30.50 inches Hg (1033.0 mb)
Winds:from the WNW (300 degrees) at 9 MPH (8 knots; 4.1 m/s)
Visibility:6 or more sm (10+ km)
Ceiling:at least 12,000 feet AGL
Clouds:sky clear below 12,000 feet AGL
Text:EKRN 282020Z AUTO 30007KT 9999 NCD 04/04 Q1033
Temperature: 4.0°C ( 39°F)
Dewpoint: 4.0°C ( 39°F) [RH = 100%]
Pressure (altimeter):30.50 inches Hg (1033.0 mb)
Winds:from the WNW (300 degrees) at 8 MPH (7 knots; 3.6 m/s)
Visibility:6 or more sm (10+ km)
Ceiling:at least 12,000 feet AGL
Clouds:sky clear below 12,000 feet AGL
Text:EKRN 281950Z AUTO 30006KT 9999 NCD 04/04 Q1033
Temperature: 4.0°C ( 39°F)
Dewpoint: 4.0°C ( 39°F) [RH = 100%]
Pressure (altimeter):30.50 inches Hg (1033.0 mb)
Winds:from the WNW (300 degrees) at 7 MPH (6 knots; 3.1 m/s)
Visibility:6 or more sm (10+ km)
Ceiling:at least 12,000 feet AGL
Clouds:sky clear below 12,000 feet AGL
Text:EKRN 281920Z AUTO 30007KT 9999 NCD 04/04 Q1033
Temperature: 4.0°C ( 39°F)
Dewpoint: 4.0°C ( 39°F) [RH = 100%]
Pressure (altimeter):30.50 inches Hg (1033.0 mb)
Winds:from the WNW (300 degrees) at 8 MPH (7 knots; 3.6 m/s)
Visibility:6 or more sm (10+ km)
Ceiling:at least 12,000 feet AGL
Clouds:sky clear below 12,000 feet AGL
Text:EKRN 281850Z AUTO 30010KT 9999 NCD 04/04 Q1032
Temperature: 4.0°C ( 39°F)
Dewpoint: 4.0°C ( 39°F) [RH = 100%]
Pressure (altimeter):30.47 inches Hg (1032.0 mb)
Winds:from the WNW (300 degrees) at 12 MPH (10 knots; 5.1 m/s)
Visibility:6 or more sm (10+ km)
Ceiling:at least 12,000 feet AGL
Clouds:sky clear below 12,000 feet AGL
Text:EKRN 281820Z AUTO 29010KT 9999 NCD 04/03 Q1032
Temperature: 4.0°C ( 39°F)
Dewpoint: 3.0°C ( 37°F) [RH = 93%]
Pressure (altimeter):30.47 inches Hg (1032.0 mb)
Winds:from the WNW (290 degrees) at 12 MPH (10 knots; 5.1 m/s)
Visibility:6 or more sm (10+ km)
Ceiling:at least 12,000 feet AGL
Clouds:sky clear below 12,000 feet AGL
Text:EKRN 281750Z AUTO 29009KT //// // NCD 03/03 Q1032
Temperature: 3.0°C ( 37°F)
Dewpoint: 3.0°C ( 37°F) [RH = 100%]
Pressure (altimeter):30.47 inches Hg (1032.0 mb)
Winds:from the WNW (290 degrees) at 10 MPH (9 knots; 4.6 m/s)
Ceiling:at least 12,000 feet AGL
Clouds:sky clear below 12,000 feet AGL
Text:EKRN 281720Z AUTO 29009KT 9999 NCD 03/03 Q1032
Temperature: 3.0°C ( 37°F)
Dewpoint: 3.0°C ( 37°F) [RH = 100%]
Pressure (altimeter):30.47 inches Hg (1032.0 mb)
Winds:from the WNW (290 degrees) at 10 MPH (9 knots; 4.6 m/s)
Visibility:6 or more sm (10+ km)
Ceiling:at least 12,000 feet AGL
Clouds:sky clear below 12,000 feet AGL
Text:EKRN 281650Z AUTO 28009KT 9999 NCD 03/03 Q1032
Temperature: 3.0°C ( 37°F)
Dewpoint: 3.0°C ( 37°F) [RH = 100%]
Pressure (altimeter):30.47 inches Hg (1032.0 mb)
Winds:from the W (280 degrees) at 10 MPH (9 knots; 4.6 m/s)
Visibility:6 or more sm (10+ km)
Ceiling:at least 12,000 feet AGL
Clouds:sky clear below 12,000 feet AGL
Text:EKRN 281620Z AUTO 29009KT 9999 NCD 04/04 Q1032
Temperature: 4.0°C ( 39°F)
Dewpoint: 4.0°C ( 39°F) [RH = 100%]
Pressure (altimeter):30.47 inches Hg (1032.0 mb)
Winds:from the WNW (290 degrees) at 10 MPH (9 knots; 4.6 m/s)
Visibility:6 or more sm (10+ km)
Ceiling:at least 12,000 feet AGL
Clouds:sky clear below 12,000 feet AGL
Text:EKRN 281550Z AUTO 29008KT 9999 FEW007/// 04/04 Q1032
Temperature: 4.0°C ( 39°F)
Dewpoint: 4.0°C ( 39°F) [RH = 100%]
Pressure (altimeter):30.47 inches Hg (1032.0 mb)
Winds:from the WNW (290 degrees) at 9 MPH (8 knots; 4.1 m/s)
Visibility:6 or more sm (10+ km)
Ceiling:at least 12,000 feet AGL
Clouds: few clouds at 700 feet AGL
Text:EKRN 281520Z AUTO 28010KT 9999 OVC003/// 04/04 Q1032
Temperature: 4.0°C ( 39°F)
Dewpoint: 4.0°C ( 39°F) [RH = 100%]
Pressure (altimeter):30.47 inches Hg (1032.0 mb)
Winds:from the W (280 degrees) at 12 MPH (10 knots; 5.1 m/s)
Visibility:6 or more sm (10+ km)
Ceiling:300 feet AGL
Clouds: overcast cloud deck at 300 feet AGL
Text:EKRN 281450Z AUTO 29011KT 7000 OVC002/// 04/04 Q1033
Temperature: 4.0°C ( 39°F)
Dewpoint: 4.0°C ( 39°F) [RH = 100%]
Pressure (altimeter):30.50 inches Hg (1033.0 mb)
Winds:from the WNW (290 degrees) at 13 MPH (11 knots; 5.7 m/s)
Visibility: 4 sm ( 7 km)
Ceiling:200 feet AGL
Clouds: overcast cloud deck at 200 feet AGL
Text:EKRN 281420Z AUTO 29013KT 6000 OVC002/// 04/04 Q1033
Temperature: 4.0°C ( 39°F)
Dewpoint: 4.0°C ( 39°F) [RH = 100%]
Pressure (altimeter):30.50 inches Hg (1033.0 mb)
Winds:from the WNW (290 degrees) at 15 MPH (13 knots; 6.7 m/s)
Visibility: 4 sm ( 6 km)
Ceiling:200 feet AGL
Clouds: overcast cloud deck at 200 feet AGL
Text:EKRN 281350Z AUTO 29011KT 7000 OVC002/// 04/04 Q1033
Temperature: 4.0°C ( 39°F)
Dewpoint: 4.0°C ( 39°F) [RH = 100%]
Pressure (altimeter):30.50 inches Hg (1033.0 mb)
Winds:from the WNW (290 degrees) at 13 MPH (11 knots; 5.7 m/s)
Visibility: 4 sm ( 7 km)
Ceiling:200 feet AGL
Clouds: overcast cloud deck at 200 feet AGL
Text:EKRN 281320Z AUTO 29011KT 8000 OVC002/// 04/04 Q1033
Temperature: 4.0°C ( 39°F)
Dewpoint: 4.0°C ( 39°F) [RH = 100%]
Pressure (altimeter):30.50 inches Hg (1033.0 mb)
Winds:from the WNW (290 degrees) at 13 MPH (11 knots; 5.7 m/s)
Visibility: 5 sm ( 8 km)
Ceiling:200 feet AGL
Clouds: overcast cloud deck at 200 feet AGL
Text:EKRN 281250Z AUTO 30011KT 6000 OVC002/// 04/04 Q1033
Temperature: 4.0°C ( 39°F)
Dewpoint: 4.0°C ( 39°F) [RH = 100%]
Pressure (altimeter):30.50 inches Hg (1033.0 mb)
Winds:from the WNW (300 degrees) at 13 MPH (11 knots; 5.7 m/s)
Visibility: 4 sm ( 6 km)
Ceiling:200 feet AGL
Clouds: overcast cloud deck at 200 feet AGL
Text:EKRN 281220Z AUTO 29012KT 6000 OVC002/// 04/04 Q1033
Temperature: 4.0°C ( 39°F)
Dewpoint: 4.0°C ( 39°F) [RH = 100%]
Pressure (altimeter):30.50 inches Hg (1033.0 mb)
Winds:from the WNW (290 degrees) at 14 MPH (12 knots; 6.2 m/s)
Visibility: 4 sm ( 6 km)
Ceiling:200 feet AGL
Clouds: overcast cloud deck at 200 feet AGL
Text:EKRN 281150Z AUTO 29012KT 9000 OVC003/// 04/04 Q1033
Temperature: 4.0°C ( 39°F)
Dewpoint: 4.0°C ( 39°F) [RH = 100%]
Pressure (altimeter):30.50 inches Hg (1033.0 mb)
Winds:from the WNW (290 degrees) at 14 MPH (12 knots; 6.2 m/s)
Visibility: 6 sm ( 9 km)
Ceiling:300 feet AGL
Clouds: overcast cloud deck at 300 feet AGL
Text:EKRN 281120Z AUTO 29012KT 8000 OVC002/// 04/04 Q1033
Temperature: 4.0°C ( 39°F)
Dewpoint: 4.0°C ( 39°F) [RH = 100%]
Pressure (altimeter):30.50 inches Hg (1033.0 mb)
Winds:from the WNW (290 degrees) at 14 MPH (12 knots; 6.2 m/s)
Visibility: 5 sm ( 8 km)
Ceiling:200 feet AGL
Clouds: overcast cloud deck at 200 feet AGL
Text:EKRN 281050Z AUTO 29013KT 3500 BR OVC002/// 04/04 Q1033
Temperature: 4.0°C ( 39°F)
Dewpoint: 4.0°C ( 39°F) [RH = 100%]
Pressure (altimeter):30.50 inches Hg (1033.0 mb)
Winds:from the WNW (290 degrees) at 15 MPH (13 knots; 6.7 m/s)
Visibility: 2.17 sm ( 3.49 km)
Ceiling:200 feet AGL
Clouds: overcast cloud deck at 200 feet AGL
Weather:BR (mist)
Text:EKRN 281020Z AUTO 30010KT 1900 BR OVC002/// 04/04 Q1033
Temperature: 4.0°C ( 39°F)
Dewpoint: 4.0°C ( 39°F) [RH = 100%]
Pressure (altimeter):30.50 inches Hg (1033.0 mb)
Winds:from the WNW (300 degrees) at 12 MPH (10 knots; 5.1 m/s)
Visibility: 1.18 sm ( 1.90 km)
Ceiling:200 feet AGL
Clouds: overcast cloud deck at 200 feet AGL
Weather:BR (mist)
Text:EKRN 280950Z AUTO 29011KT 2500 BR OVC002/// 04/04 Q1033
Temperature: 4.0°C ( 39°F)
Dewpoint: 4.0°C ( 39°F) [RH = 100%]
Pressure (altimeter):30.50 inches Hg (1033.0 mb)
Winds:from the WNW (290 degrees) at 13 MPH (11 knots; 5.7 m/s)
Visibility: 1.55 sm ( 2.49 km)
Ceiling:200 feet AGL
Clouds: overcast cloud deck at 200 feet AGL
Weather:BR (mist)
Text:EKRN 280920Z AUTO 30011KT 5000 OVC002/// 04/04 Q1033
Temperature: 4.0°C ( 39°F)
Dewpoint: 4.0°C ( 39°F) [RH = 100%]
Pressure (altimeter):30.50 inches Hg (1033.0 mb)
Winds:from the WNW (300 degrees) at 13 MPH (11 knots; 5.7 m/s)
Visibility: 3 sm ( 5 km)
Ceiling:200 feet AGL
Clouds: overcast cloud deck at 200 feet AGL
Text:EKRN 280850Z AUTO 30011KT 270V330 7000 OVC003/// 04/04 Q1033
Temperature: 4.0°C ( 39°F)
Dewpoint: 4.0°C ( 39°F) [RH = 100%]
Pressure (altimeter):30.50 inches Hg (1033.0 mb)
Winds:from the WNW (300 degrees) at 13 MPH (11 knots; 5.7 m/s)
Visibility: 4 sm ( 7 km)
Ceiling:300 feet AGL
Clouds: overcast cloud deck at 300 feet AGL
Text:EKRN 280820Z AUTO 30012KT 8000 OVC002/// 04/04 Q1033
Temperature: 4.0°C ( 39°F)
Dewpoint: 4.0°C ( 39°F) [RH = 100%]
Pressure (altimeter):30.50 inches Hg (1033.0 mb)
Winds:from the WNW (300 degrees) at 14 MPH (12 knots; 6.2 m/s)
Visibility: 5 sm ( 8 km)
Ceiling:200 feet AGL
Clouds: overcast cloud deck at 200 feet AGL
Text:EKRN 280750Z AUTO 29012KT 6000 OVC003/// 04/04 Q1033
Temperature: 4.0°C ( 39°F)
Dewpoint: 4.0°C ( 39°F) [RH = 100%]
Pressure (altimeter):30.50 inches Hg (1033.0 mb)
Winds:from the WNW (290 degrees) at 14 MPH (12 knots; 6.2 m/s)
Visibility: 4 sm ( 6 km)
Ceiling:300 feet AGL
Clouds: overcast cloud deck at 300 feet AGL
Text:EKRN 280720Z AUTO 30010KT 270V330 8000 OVC003/// 04/04 Q1033
Temperature: 4.0°C ( 39°F)
Dewpoint: 4.0°C ( 39°F) [RH = 100%]
Pressure (altimeter):30.50 inches Hg (1033.0 mb)
Winds:from the WNW (300 degrees) at 12 MPH (10 knots; 5.1 m/s)
Visibility: 5 sm ( 8 km)
Ceiling:300 feet AGL
Clouds: overcast cloud deck at 300 feet AGL
Text:EKRN 280650Z AUTO 30010KT 270V330 8000 OVC004/// 04/04 Q1033
Temperature: 4.0°C ( 39°F)
Dewpoint: 4.0°C ( 39°F) [RH = 100%]
Pressure (altimeter):30.50 inches Hg (1033.0 mb)
Winds:from the WNW (300 degrees) at 12 MPH (10 knots; 5.1 m/s)
Visibility: 5 sm ( 8 km)
Ceiling:400 feet AGL
Clouds: overcast cloud deck at 400 feet AGL
Text:EKRN 280620Z AUTO 30011KT 270V330 9000 OVC004/// 04/04 Q1032
Temperature: 4.0°C ( 39°F)
Dewpoint: 4.0°C ( 39°F) [RH = 100%]
Pressure (altimeter):30.47 inches Hg (1032.0 mb)
Winds:from the WNW (300 degrees) at 13 MPH (11 knots; 5.7 m/s)
Visibility: 6 sm ( 9 km)
Ceiling:400 feet AGL
Clouds: overcast cloud deck at 400 feet AGL
Text:EKRN 280550Z AUTO 30010KT 9999 OVC004/// 04/04 Q1032
Temperature: 4.0°C ( 39°F)
Dewpoint: 4.0°C ( 39°F) [RH = 100%]
Pressure (altimeter):30.47 inches Hg (1032.0 mb)
Winds:from the WNW (300 degrees) at 12 MPH (10 knots; 5.1 m/s)
Visibility:6 or more sm (10+ km)
Ceiling:400 feet AGL
Clouds: overcast cloud deck at 400 feet AGL
Text:EKRN 280520Z AUTO 30011KT 9000 OVC004/// 04/04 Q1032
Temperature: 4.0°C ( 39°F)
Dewpoint: 4.0°C ( 39°F) [RH = 100%]
Pressure (altimeter):30.47 inches Hg (1032.0 mb)
Winds:from the WNW (300 degrees) at 13 MPH (11 knots; 5.7 m/s)
Visibility: 6 sm ( 9 km)
Ceiling:400 feet AGL
Clouds: overcast cloud deck at 400 feet AGL
Text:EKRN 280450Z AUTO 30010KT 8000 OVC004/// 04/04 Q1032
Temperature: 4.0°C ( 39°F)
Dewpoint: 4.0°C ( 39°F) [RH = 100%]
Pressure (altimeter):30.47 inches Hg (1032.0 mb)
Winds:from the WNW (300 degrees) at 12 MPH (10 knots; 5.1 m/s)
Visibility: 5 sm ( 8 km)
Ceiling:400 feet AGL
Clouds: overcast cloud deck at 400 feet AGL
Text:EKRN 280420Z AUTO 30010KT 9999 OVC004/// 04/04 Q1033
Temperature: 4.0°C ( 39°F)
Dewpoint: 4.0°C ( 39°F) [RH = 100%]
Pressure (altimeter):30.50 inches Hg (1033.0 mb)
Winds:from the WNW (300 degrees) at 12 MPH (10 knots; 5.1 m/s)
Visibility:6 or more sm (10+ km)
Ceiling:400 feet AGL
Clouds: overcast cloud deck at 400 feet AGL
Text:EKRN 280350Z AUTO 30010KT 9999 OVC005/// 04/04 Q1033
Temperature: 4.0°C ( 39°F)
Dewpoint: 4.0°C ( 39°F) [RH = 100%]
Pressure (altimeter):30.50 inches Hg (1033.0 mb)
Winds:from the WNW (300 degrees) at 12 MPH (10 knots; 5.1 m/s)
Visibility:6 or more sm (10+ km)
Ceiling:500 feet AGL
Clouds: overcast cloud deck at 500 feet AGL
Text:EKRN 280320Z AUTO 30009KT 9999 OVC005/// 04/04 Q1033
Temperature: 4.0°C ( 39°F)
Dewpoint: 4.0°C ( 39°F) [RH = 100%]
Pressure (altimeter):30.50 inches Hg (1033.0 mb)
Winds:from the WNW (300 degrees) at 10 MPH (9 knots; 4.6 m/s)
Visibility:6 or more sm (10+ km)
Ceiling:500 feet AGL
Clouds: overcast cloud deck at 500 feet AGL
Text:EKRN 280250Z AUTO 30011KT 9999 OVC004/// 04/04 Q1033
Temperature: 4.0°C ( 39°F)
Dewpoint: 4.0°C ( 39°F) [RH = 100%]
Pressure (altimeter):30.50 inches Hg (1033.0 mb)
Winds:from the WNW (300 degrees) at 13 MPH (11 knots; 5.7 m/s)
Visibility:6 or more sm (10+ km)
Ceiling:400 feet AGL
Clouds: overcast cloud deck at 400 feet AGL
Text:EKRN 280220Z AUTO 30010KT 8000 OVC004/// 04/04 Q1033
Temperature: 4.0°C ( 39°F)
Dewpoint: 4.0°C ( 39°F) [RH = 100%]
Pressure (altimeter):30.50 inches Hg (1033.0 mb)
Winds:from the WNW (300 degrees) at 12 MPH (10 knots; 5.1 m/s)
Visibility: 5 sm ( 8 km)
Ceiling:400 feet AGL
Clouds: overcast cloud deck at 400 feet AGL
Text:EKRN 280150Z AUTO 29008KT 6000 OVC005/// 04/04 Q1033
Temperature: 4.0°C ( 39°F)
Dewpoint: 4.0°C ( 39°F) [RH = 100%]
Pressure (altimeter):30.50 inches Hg (1033.0 mb)
Winds:from the WNW (290 degrees) at 9 MPH (8 knots; 4.1 m/s)
Visibility: 4 sm ( 6 km)
Ceiling:500 feet AGL
Clouds: overcast cloud deck at 500 feet AGL
Text:EKRN 280120Z AUTO 29009KT 8000 BKN005/// 04/04 Q1033
Temperature: 4.0°C ( 39°F)
Dewpoint: 4.0°C ( 39°F) [RH = 100%]
Pressure (altimeter):30.50 inches Hg (1033.0 mb)
Winds:from the WNW (290 degrees) at 10 MPH (9 knots; 4.6 m/s)
Visibility: 5 sm ( 8 km)
Ceiling:500 feet AGL
Clouds: broken clouds at 500 feet AGL
Text:EKRN 280050Z AUTO 28009KT 7000 NCD 03/03 Q1033
Temperature: 3.0°C ( 37°F)
Dewpoint: 3.0°C ( 37°F) [RH = 100%]
Pressure (altimeter):30.50 inches Hg (1033.0 mb)
Winds:from the W (280 degrees) at 10 MPH (9 knots; 4.6 m/s)
Visibility: 4 sm ( 7 km)
Ceiling:at least 12,000 feet AGL
Clouds:sky clear below 12,000 feet AGL
Text:EKRN 280020Z AUTO 28009KT 5000 FEW003/// 03/03 Q1033
Temperature: 3.0°C ( 37°F)
Dewpoint: 3.0°C ( 37°F) [RH = 100%]
Pressure (altimeter):30.50 inches Hg (1033.0 mb)
Winds:from the W (280 degrees) at 10 MPH (9 knots; 4.6 m/s)
Visibility: 3 sm ( 5 km)
Ceiling:at least 12,000 feet AGL
Clouds: few clouds at 300 feet AGL
Text:EKRN 272350Z AUTO 28005KT 4000 BR BKN003/// 03/03 Q1033
Temperature: 3.0°C ( 37°F)
Dewpoint: 3.0°C ( 37°F) [RH = 100%]
Pressure (altimeter):30.50 inches Hg (1033.0 mb)
Winds:from the W (280 degrees) at 6 MPH (5 knots; 2.6 m/s)
Visibility: 2.49 sm ( 4.01 km)
Ceiling:300 feet AGL
Clouds: broken clouds at 300 feet AGL
Weather:BR (mist)
Text:EKRN 272320Z AUTO 24002KT 1400 R11/P1500N R29/P1500N BR BKN002/// 03/03 Q1033
Temperature: 3.0°C ( 37°F)
Dewpoint: 3.0°C ( 37°F) [RH = 100%]
Pressure (altimeter):30.50 inches Hg (1033.0 mb)
Winds:from the WSW (240 degrees) at 2 MPH (2 knots; 1.0 m/s)
Visibility: 0.87 sm ( 1.40 km)
Ceiling:200 feet AGL
Clouds: broken clouds at 200 feet AGL
Weather:BR (mist)
Text:EKRN 272250Z AUTO 26002KT 0800 R11/P1500N R29/1200N FG VV002 03/03 Q1033
Temperature: 3.0°C ( 37°F)
Dewpoint: 3.0°C ( 37°F) [RH = 100%]
Pressure (altimeter):30.50 inches Hg (1033.0 mb)
Winds:from the W (260 degrees) at 2 MPH (2 knots; 1.0 m/s)
Visibility: 0.50 sm ( 0.80 km)
Ceiling:indefinite ceiling with vertical visibility of 200 feet AGL
Clouds:obscured sky
Weather:FG (fog)
Text:EKRN 272220Z AUTO 25004KT 0250 R11/1100N R29/1100D FG VV002 03/03 Q1034
Temperature: 3.0°C ( 37°F)
Dewpoint: 3.0°C ( 37°F) [RH = 100%]
Pressure (altimeter):30.53 inches Hg (1034.0 mb)
Winds:from the WSW (250 degrees) at 5 MPH (4 knots; 2.1 m/s)
Visibility: 0.16 sm ( 0.26 km)
Ceiling:indefinite ceiling with vertical visibility of 200 feet AGL
Clouds:obscured sky
Weather:FG (fog)
Text:EKRN 272150Z AUTO 27007KT 0450 R11/1400U R29/1200N FG VV002 02/02 Q1034
Temperature: 2.0°C ( 36°F)
Dewpoint: 2.0°C ( 36°F) [RH = 100%]
Pressure (altimeter):30.53 inches Hg (1034.0 mb)
Winds:from the W (270 degrees) at 8 MPH (7 knots; 3.6 m/s)
Visibility: 0.28 sm ( 0.45 km)
Ceiling:indefinite ceiling with vertical visibility of 200 feet AGL
Clouds:obscured sky
Weather:FG (fog)
Text:EKRN 272120Z AUTO 27007KT 1100 R11/P1500D R29/P1500D BR SCT004/// BKN023/// BKN180/// 03/03 Q1034
Temperature: 3.0°C ( 37°F)
Dewpoint: 3.0°C ( 37°F) [RH = 100%]
Pressure (altimeter):30.53 inches Hg (1034.0 mb)
Winds:from the W (270 degrees) at 8 MPH (7 knots; 3.6 m/s)
Visibility: 0.68 sm ( 1.09 km)
Ceiling:2300 feet AGL
Clouds: scattered clouds at 400 feet AGL, broken clouds at 2300 feet AGL, broken clouds at 18000 feet AGL
Weather:BR (mist)
Text:EKRN 272050Z AUTO 29009KT 9000 BKN110/// BKN160/// BKN180/// 03/03 Q1034
Temperature: 3.0°C ( 37°F)
Dewpoint: 3.0°C ( 37°F) [RH = 100%]
Pressure (altimeter):30.53 inches Hg (1034.0 mb)
Winds:from the WNW (290 degrees) at 10 MPH (9 knots; 4.6 m/s)
Visibility: 6 sm ( 9 km)
Ceiling:11000 feet AGL
Clouds: broken clouds at 11000 feet AGL, broken clouds at 16000 feet AGL, broken clouds at 18000 feet AGL
Text:EKRN 272020Z AUTO 29009KT 9999 BKN170/// 04/04 Q1034
Temperature: 4.0°C ( 39°F)
Dewpoint: 4.0°C ( 39°F) [RH = 100%]
Pressure (altimeter):30.53 inches Hg (1034.0 mb)
Winds:from the WNW (290 degrees) at 10 MPH (9 knots; 4.6 m/s)
Visibility:6 or more sm (10+ km)
Ceiling:17000 feet AGL
Clouds: broken clouds at 17000 feet AGL
Text:EKRN 271950Z AUTO 29008KT 9999 BKN220/// 04/04 Q1034
Temperature: 4.0°C ( 39°F)
Dewpoint: 4.0°C ( 39°F) [RH = 100%]
Pressure (altimeter):30.53 inches Hg (1034.0 mb)
Winds:from the WNW (290 degrees) at 9 MPH (8 knots; 4.1 m/s)
Visibility:6 or more sm (10+ km)
Ceiling:22000 feet AGL
Clouds: broken clouds at 22000 feet AGL
Text:EKRN 271920Z AUTO 29008KT 9999 FEW240/// 04/04 Q1034
Temperature: 4.0°C ( 39°F)
Dewpoint: 4.0°C ( 39°F) [RH = 100%]
Pressure (altimeter):30.53 inches Hg (1034.0 mb)
Winds:from the WNW (290 degrees) at 9 MPH (8 knots; 4.1 m/s)
Visibility:6 or more sm (10+ km)
Ceiling:at least 12,000 feet AGL
Clouds: few clouds at 24000 feet AGL
Text:EKRN 271850Z AUTO 28006KT 9999 NCD 03/03 Q1034
Temperature: 3.0°C ( 37°F)
Dewpoint: 3.0°C ( 37°F) [RH = 100%]
Pressure (altimeter):30.53 inches Hg (1034.0 mb)
Winds:from the W (280 degrees) at 7 MPH (6 knots; 3.1 m/s)
Visibility:6 or more sm (10+ km)
Ceiling:at least 12,000 feet AGL
Clouds:sky clear below 12,000 feet AGL
Text:EKRN 271820Z AUTO 30003KT 9999 NCD 04/04 Q1034
Temperature: 4.0°C ( 39°F)
Dewpoint: 4.0°C ( 39°F) [RH = 100%]
Pressure (altimeter):30.53 inches Hg (1034.0 mb)
Winds:from the WNW (300 degrees) at 3 MPH (3 knots; 1.5 m/s)
Visibility:6 or more sm (10+ km)
Ceiling:at least 12,000 feet AGL
Clouds:sky clear below 12,000 feet AGL
Text:EKRN 271750Z AUTO 29005KT 9999 NCD 04/04 Q1035
Temperature: 4.0°C ( 39°F)
Dewpoint: 4.0°C ( 39°F) [RH = 100%]
Pressure (altimeter):30.56 inches Hg (1035.0 mb)
Winds:from the WNW (290 degrees) at 6 MPH (5 knots; 2.6 m/s)
Visibility:6 or more sm (10+ km)
Ceiling:at least 12,000 feet AGL
Clouds:sky clear below 12,000 feet AGL
Text:EKRN 271720Z AUTO 28004KT 250V310 9999 BKN220/// 04/03 Q1034
Temperature: 4.0°C ( 39°F)
Dewpoint: 3.0°C ( 37°F) [RH = 93%]
Pressure (altimeter):30.53 inches Hg (1034.0 mb)
Winds:from the W (280 degrees) at 5 MPH (4 knots; 2.1 m/s)
Visibility:6 or more sm (10+ km)
Ceiling:22000 feet AGL
Clouds: broken clouds at 22000 feet AGL
Text:EKRN 271650Z AUTO 28005KT 250V310 9999 NCD 04/04 Q1035
Temperature: 4.0°C ( 39°F)
Dewpoint: 4.0°C ( 39°F) [RH = 100%]
Pressure (altimeter):30.56 inches Hg (1035.0 mb)
Winds:from the W (280 degrees) at 6 MPH (5 knots; 2.6 m/s)
Visibility:6 or more sm (10+ km)
Ceiling:at least 12,000 feet AGL
Clouds:sky clear below 12,000 feet AGL
Text:EKRN 271620Z AUTO 28008KT 9999 NCD 04/04 Q1035
Temperature: 4.0°C ( 39°F)
Dewpoint: 4.0°C ( 39°F) [RH = 100%]
Pressure (altimeter):30.56 inches Hg (1035.0 mb)
Winds:from the W (280 degrees) at 9 MPH (8 knots; 4.1 m/s)
Visibility:6 or more sm (10+ km)
Ceiling:at least 12,000 feet AGL
Clouds:sky clear below 12,000 feet AGL
Text:EKRN 271550Z AUTO 28006KT 250V310 9999 NCD 04/03 Q1035
Temperature: 4.0°C ( 39°F)
Dewpoint: 3.0°C ( 37°F) [RH = 93%]
Pressure (altimeter):30.56 inches Hg (1035.0 mb)
Winds:from the W (280 degrees) at 7 MPH (6 knots; 3.1 m/s)
Visibility:6 or more sm (10+ km)
Ceiling:at least 12,000 feet AGL
Clouds:sky clear below 12,000 feet AGL
Text:EKRN 271520Z AUTO 29006KT 260V320 9999 NCD 05/02 Q1035
Temperature: 5.0°C ( 41°F)
Dewpoint: 2.0°C ( 36°F) [RH = 81%]
Pressure (altimeter):30.56 inches Hg (1035.0 mb)
Winds:from the WNW (290 degrees) at 7 MPH (6 knots; 3.1 m/s)
Visibility:6 or more sm (10+ km)
Ceiling:at least 12,000 feet AGL
Clouds:sky clear below 12,000 feet AGL
Text:EKRN 271450Z AUTO 27008KT 9999 NCD 04/03 Q1035
Temperature: 4.0°C ( 39°F)
Dewpoint: 3.0°C ( 37°F) [RH = 93%]
Pressure (altimeter):30.56 inches Hg (1035.0 mb)
Winds:from the W (270 degrees) at 9 MPH (8 knots; 4.1 m/s)
Visibility:6 or more sm (10+ km)
Ceiling:at least 12,000 feet AGL
Clouds:sky clear below 12,000 feet AGL
Text:EKRN 271420Z AUTO 28008KT 250V310 9999 NCD 05/03 Q1035
Temperature: 5.0°C ( 41°F)
Dewpoint: 3.0°C ( 37°F) [RH = 87%]
Pressure (altimeter):30.56 inches Hg (1035.0 mb)
Winds:from the W (280 degrees) at 9 MPH (8 knots; 4.1 m/s)
Visibility:6 or more sm (10+ km)
Ceiling:at least 12,000 feet AGL
Clouds:sky clear below 12,000 feet AGL
Text:EKRN 271350Z AUTO 28007KT 9999 NCD 05/03 Q1035
Temperature: 5.0°C ( 41°F)
Dewpoint: 3.0°C ( 37°F) [RH = 87%]
Pressure (altimeter):30.56 inches Hg (1035.0 mb)
Winds:from the W (280 degrees) at 8 MPH (7 knots; 3.6 m/s)
Visibility:6 or more sm (10+ km)
Ceiling:at least 12,000 feet AGL
Clouds:sky clear below 12,000 feet AGL
Text:EKRN 271320Z AUTO 28007KT 9999 NCD 05/03 Q1035
Temperature: 5.0°C ( 41°F)
Dewpoint: 3.0°C ( 37°F) [RH = 87%]
Pressure (altimeter):30.56 inches Hg (1035.0 mb)
Winds:from the W (280 degrees) at 8 MPH (7 knots; 3.6 m/s)
Visibility:6 or more sm (10+ km)
Ceiling:at least 12,000 feet AGL
Clouds:sky clear below 12,000 feet AGL

TAF for:EKRN (Ronne/Bornholm Arpt, HO, DN) issued at 1731 UTC 28 Feb 2021
Text:TAF EKRN 281731Z 2818/2823 29012KT 8000 SCT004
Forecast period:1800 to 2300 UTC 28 February 2021
Forecast type:FROM: standard forecast or significant change
Winds:from the WNW (290 degrees) at 14 MPH (12 knots; 6.2 m/s)
Visibility: 5 sm ( 8 km)
Ceiling:at least 12,000 feet AGL
Clouds: scattered clouds at 400 feet AGL